Time;durP1;ratioP1;P1;durP2;ratioP2;P2;SDS_P1;SDS_P2;PMS_P1;PMS_P2;Temp;Humidity;BMP_temperature;BMP_pressure;BME280_temperature;BME280_humidity;BME280_pressure;Samples;Min_cycle;Max_cycle;Signal;HPM_P1;HPM_P2
2021/09/14 00:00:26;;;;;;;8.25;6.38;;;;;;;16.70;63.60;100019.84;6220615;23;20028;-79
2021/09/14 00:02:58;;;;;;;8.07;6.22;;;;;;;16.67;64.39;100015.59;6247185;23;20336;-79
2021/09/14 00:05:26;;;;;;;8.45;6.28;;;;;;;16.69;63.77;100008.34;6220257;23;20016;-79
2021/09/14 00:07:52;;;;;;;9.00;6.53;;;;;;;16.69;63.51;100013.66;6220091;23;20024;-79
2021/09/14 00:10:19;;;;;;;10.82;6.72;;;;;;;16.70;63.60;100003.91;6220334;23;20028;-79
2021/09/14 00:12:55;;;;;;;8.98;6.63;;;;;;;16.65;64.35;99994.47;6220681;23;20339;-79
2021/09/14 00:15:22;;;;;;;9.07;6.35;;;;;;;16.68;63.75;99990.72;6220485;23;20034;-79
2021/09/14 00:17:49;;;;;;;7.40;6.53;;;;;;;16.68;63.65;99988.06;6220488;23;20095;-79
2021/09/14 00:20:16;;;;;;;9.82;7.00;;;;;;;16.66;63.98;99984.66;6219859;23;20024;-80
2021/09/14 00:22:43;;;;;;;8.75;6.82;;;;;;;16.66;63.90;99982.00;6220427;23;20024;-80
2021/09/14 00:25:10;;;;;;;10.52;7.00;;;;;;;16.64;63.95;99974.16;6246666;23;20625;-80
2021/09/14 00:27:37;;;;;;;10.98;7.07;;;;;;;16.64;63.92;99970.66;6220288;23;20016;-79
2021/09/14 00:30:04;;;;;;;9.15;7.00;;;;;;;16.63;63.89;99974.31;6219737;23;20030;-79
2021/09/14 00:32:31;;;;;;;9.85;7.32;;;;;;;16.62;64.10;99968.13;6219916;23;20123;-79
2021/09/14 00:34:58;;;;;;;10.68;7.40;;;;;;;16.61;64.07;99971.75;6219869;23;20034;-80
2021/09/14 00:37:25;;;;;;;9.63;7.38;;;;;;;16.61;63.98;99976.22;6246425;23;20024;-79
2021/09/14 00:40:01;;;;;;;10.15;7.90;;;;;;;16.56;64.83;99965.94;6219654;23;20020;-79
2021/09/14 00:42:27;;;;;;;11.15;7.68;;;;;;;16.59;64.08;99968.38;6220249;23;20028;-79
2021/09/14 00:44:54;;;;;;;9.35;6.97;;;;;;;16.59;64.06;99965.69;6219981;23;20386;-80
2021/09/14 00:47:21;;;;;;;10.50;7.43;;;;;;;16.59;64.07;99970.19;6219867;23;20027;-79
2021/09/14 00:49:49;;;;;;;12.80;7.18;;;;;;;16.58;64.11;99968.47;6219702;23;20024;-79
2021/09/14 00:52:16;;;;;;;10.13;7.38;;;;;;;16.57;63.95;99958.81;6219873;23;20027;-79
2021/09/14 00:54:44;;;;;;;11.00;7.40;;;;;;;16.54;63.89;99958.13;6219541;23;20020;-79
2021/09/14 00:57:11;;;;;;;11.13;7.53;;;;;;;16.53;63.81;99959.06;6220226;23;20022;-79
2021/09/14 00:59:38;;;;;;;9.30;7.25;;;;;;;16.52;63.82;99960.03;6220144;23;20023;-80
2021/09/14 01:02:15;;;;;;;10.85;7.68;;;;;;;16.48;64.41;99961.25;6246021;23;20030;-79
2021/09/14 01:04:47;;;;;;;7.57;6.38;;;;;;;16.47;64.08;99959.56;6219840;23;20024;-79
2021/09/14 01:07:14;;;;;;;10.02;7.03;;;;;;;16.48;63.66;99955.94;6219731;23;20020;-79
2021/09/14 01:09:42;;;;;;;11.00;6.97;;;;;;;16.46;63.67;99952.56;6220065;23;20335;-79
2021/09/14 01:12:10;;;;;;;9.73;6.75;;;;;;;16.46;63.40;99954.34;6219992;23;20439;-79
2021/09/14 01:14:38;;;;;;;9.05;6.97;;;;;;;16.42;63.48;99953.75;6219839;23;20103;-79
2021/09/14 01:17:05;;;;;;;10.20;6.15;;;;;;;16.40;63.29;99951.22;6219988;23;20028;-79
2021/09/14 01:19:32;;;;;;;9.48;6.95;;;;;;;16.36;63.20;99948.91;6246414;23;20030;-79
2021/09/14 01:22:03;;;;;;;9.30;7.63;;;;;;;16.32;64.04;99956.28;6219227;23;20020;-79
2021/09/14 01:24:29;;;;;;;9.65;7.28;;;;;;;16.32;63.79;99958.09;6219764;23;20043;-79
2021/09/14 01:26:57;;;;;;;9.95;7.72;;;;;;;16.29;64.08;99959.19;6219647;23;20026;-79
2021/09/14 01:32:11;;;;;;;12.57;8.10;;;;;;;16.26;64.24;99952.28;6246114;23;20020;-79
2021/09/14 01:34:38;;;;;;;10.30;7.80;;;;;;;16.26;64.39;99954.94;6221702;23;20026;-79
2021/09/14 01:37:06;;;;;;;9.18;7.25;;;;;;;16.25;64.50;99952.41;6221776;23;20024;-79
2021/09/14 01:39:38;;;;;;;9.43;7.65;;;;;;;16.23;65.10;99960.50;6221934;23;20461;-79
2021/09/14 01:42:05;;;;;;;9.15;7.10;;;;;;;16.26;64.53;99960.25;6221783;23;20020;-79
2021/09/14 01:44:31;;;;;;;9.13;7.07;;;;;;;16.26;64.70;99962.09;6221168;23;20020;-80
2021/09/14 01:47:01;;;;;;;10.98;7.38;;;;;;;16.25;65.24;99958.59;6221852;23;20030;-78
2021/09/14 01:49:28;;;;;;;9.27;7.63;;;;;;;16.26;64.71;99962.91;6221878;23;20431;-79
2021/09/14 01:51:55;;;;;;;9.98;8.10;;;;;;;16.26;64.86;99949.63;6222351;23;20199;-79
2021/09/14 01:54:23;;;;;;;12.23;7.38;;;;;;;16.27;64.98;99959.28;6247422;23;20020;-80
2021/09/14 01:56:49;;;;;;;10.00;8.07;;;;;;;16.28;64.72;99958.34;6221712;23;20027;-80
2021/09/14 01:59:16;;;;;;;13.48;7.55;;;;;;;16.28;64.63;99961.00;6221653;23;20043;-79
2021/09/14 02:01:50;;;;;;;10.30;7.75;;;;;;;16.28;64.68;99965.47;6221472;23;20028;-79
2021/09/14 02:04:22;;;;;;;12.13;7.82;;;;;;;16.27;64.65;99961.94;6220988;23;20075;-79
2021/09/14 02:43:40;;;;;;;10.65;8.50;;;;;;;16.17;64.89;99931.78;6196681;23;20354;-80
2021/09/14 03:00:40;;;;;;;11.60;9.13;;;;;;;16.03;64.97;99932.84;6247613;23;20881;-79
2021/09/14 03:03:07;;;;;;;14.40;9.93;;;;;;;16.01;65.06;99935.59;6221327;23;20363;-79
2021/09/14 03:05:33;;;;;;;15.43;9.57;;;;;;;15.99;65.23;99928.72;6220448;23;20024;-79
2021/09/14 03:08:13;;;;;;;18.23;9.55;;;;;;;15.93;66.04;99930.03;6221207;23;20030;-79
2021/09/14 03:10:40;;;;;;;13.18;9.68;;;;;;;15.95;65.18;99933.44;6221138;23;20020;-79
2021/09/14 03:13:07;;;;;;;15.00;10.15;;;;;;;15.94;65.29;99931.75;6221034;23;20024;-79
2021/09/14 03:15:37;;;;;;;13.95;9.70;;;;;;;15.90;66.00;99930.25;6220461;23;20027;-79
2021/09/14 03:18:04;;;;;;;15.07;9.82;;;;;;;15.90;65.37;99927.59;6220804;23;20027;-79
2021/09/14 03:20:31;;;;;;;14.65;10.18;;;;;;;15.87;65.50;99926.03;6247022;23;20020;-79
2021/09/14 03:22:58;;;;;;;12.40;9.38;;;;;;;15.86;65.49;99926.97;6220864;23;20020;-79
2021/09/14 03:25:24;;;;;;;13.10;10.05;;;;;;;15.85;65.57;99927.13;6220638;23;20031;-79
2021/09/14 03:27:51;;;;;;;23.48;9.48;;;;;;;15.85;65.75;99932.44;6220852;23;20035;-79
2021/09/14 03:30:18;;;;;;;13.63;8.88;;;;;;;15.84;65.66;99928.06;6220940;23;20023;-79
2021/09/14 03:32:45;;;;;;;14.60;9.38;;;;;;;15.84;65.76;99925.41;6220698;23;20020;-80
2021/09/14 03:35:14;;;;;;;15.23;9.15;;;;;;;15.82;66.16;99919.38;6220374;23;20099;-79
2021/09/14 03:37:41;;;;;;;11.10;8.30;;;;;;;15.83;65.77;99923.72;6220426;23;20020;-79
2021/09/14 03:40:08;;;;;;;11.57;8.65;;;;;;;15.82;65.70;99917.59;6220586;23;20099;-79
2021/09/14 03:42:38;;;;;;;18.02;8.95;;;;;;;15.80;66.16;99921.28;6220754;23;20026;-79
2021/09/14 03:45:05;;;;;;;12.77;8.55;;;;;;;15.81;65.77;99917.69;6247062;23;20020;-79
2021/09/14 03:47:32;;;;;;;43.22;9.00;;;;;;;15.79;65.72;99915.16;6221167;23;20026;-78
2021/09/14 03:50:05;;;;;;;12.45;8.52;;;;;;;15.75;66.38;99917.19;6247214;23;20016;-79
2021/09/14 03:52:32;;;;;;;14.75;9.02;;;;;;;15.77;65.68;99917.94;6220932;23;20024;-79
2021/09/14 03:55:01;;;;;;;12.65;8.65;;;;;;;15.74;65.92;99918.16;6220227;23;20031;-79
2021/09/14 03:57:27;;;;;;;13.07;9.13;;;;;;;15.75;65.74;99917.19;6220309;23;20027;-79
2021/09/14 03:59:55;;;;;;;12.00;8.45;;;;;;;15.75;65.64;99913.69;6220769;23;20046;-79
2021/09/14 04:09:52;;;;;;;13.95;9.88;;;;;;;15.70;65.81;99903.44;6246727;23;20016;-79
2021/09/14 04:12:19;;;;;;;13.77;9.75;;;;;;;15.70;65.75;99899.94;6220537;23;20024;-79
2021/09/14 04:14:46;;;;;;;14.50;10.27;;;;;;;15.68;65.92;99901.84;6219992;23;20028;-79
2021/09/14 04:17:14;;;;;;;12.68;9.50;;;;;;;15.66;66.05;99899.31;6220055;23;20020;-79
2021/09/14 04:19:41;;;;;;;13.27;9.77;;;;;;;15.67;65.91;99902.81;6220354;23;20027;-78
2021/09/14 04:22:07;;;;;;;15.93;10.15;;;;;;;15.66;65.99;99904.63;6220374;23;20019;-78
2021/09/14 04:24:35;;;;;;;15.77;10.27;;;;;;;15.64;66.08;99902.09;6220364;23;20020;-78
2021/09/14 04:27:02;;;;;;;13.57;9.63;;;;;;;15.63;66.20;99891.59;6220099;23;20034;-78
2021/09/14 04:29:28;;;;;;;14.70;10.02;;;;;;;15.62;66.05;99896.06;6219982;23;20020;-78
2021/09/14 04:31:55;;;;;;;15.32;10.90;;;;;;;15.62;66.08;99898.72;6220067;23;20457;-77
2021/09/14 04:34:22;;;;;;;14.25;10.43;;;;;;;15.61;66.29;99904.13;6219709;23;20035;-78
2021/09/14 04:36:49;;;;;;;15.40;10.38;;;;;;;15.62;66.15;99897.84;6220405;23;20028;-79
2021/09/14 04:39:18;;;;;;;16.02;10.50;;;;;;;15.59;66.45;99895.47;6219757;23;20020;-79
2021/09/14 04:41:46;;;;;;;16.98;10.73;;;;;;;15.59;66.18;99883.03;6246863;23;20486;-78
2021/09/14 04:44:13;;;;;;;17.50;10.60;;;;;;;15.59;66.32;99893.63;6219641;23;20066;-77
2021/09/14 04:46:52;;;;;;;14.30;10.43;;;;;;;15.54;67.15;99884.31;6220305;23;20497;-79
2021/09/14 04:49:19;;;;;;;16.90;10.80;;;;;;;15.58;66.24;99891.09;6219949;23;20406;-79
2021/09/14 04:51:45;;;;;;;15.30;10.60;;;;;;;15.56;66.23;99891.22;6220053;23;20026;-79
2021/09/14 04:54:17;;;;;;;14.15;10.23;;;;;;;15.55;66.82;99894.00;6220404;23;20351;-79
2021/09/14 04:56:44;;;;;;;15.13;10.45;;;;;;;15.55;66.24;99889.53;6246635;23;20515;-79
2021/09/14 04:59:11;;;;;;;16.48;11.38;;;;;;;15.54;66.29;99890.50;6219796;23;20016;-80
2021/09/14 05:01:43;;;;;;;17.80;11.18;;;;;;;15.52;66.94;99887.13;6219844;23;20028;-79
2021/09/14 05:04:09;;;;;;;16.02;10.68;;;;;;;15.55;66.40;99883.38;6219226;23;20027;-79
2021/09/14 05:06:36;;;;;;;15.45;10.00;;;;;;;15.54;66.30;99879.88;6246705;23;20050;-79
2021/09/14 05:09:14;;;;;;;15.60;10.80;;;;;;;15.50;67.07;99881.94;6219179;23;20031;-79
2021/09/14 05:11:41;;;;;;;15.52;11.07;;;;;;;15.54;66.36;99871.91;6219723;23;20020;-79
2021/09/14 05:14:08;;;;;;;15.38;10.55;;;;;;;15.54;66.32;99876.38;6219445;23;20020;-79
2021/09/14 05:16:35;;;;;;;13.30;10.10;;;;;;;15.53;66.40;99883.50;6220243;23;20035;-79
2021/09/14 05:19:02;;;;;;;14.80;9.98;;;;;;;15.55;66.39;99878.09;6219500;23;20028;-79
2021/09/14 05:21:31;;;;;;;12.35;9.88;;;;;;;15.55;66.36;99883.38;6220012;23;20020;-79
2021/09/14 05:23:57;;;;;;;14.63;9.55;;;;;;;15.55;66.40;99880.72;6219853;23;20043;-79
2021/09/14 05:26:26;;;;;;;12.90;9.18;;;;;;;15.56;66.37;99879.75;6220072;23;20340;-79
2021/09/14 05:28:52;;;;;;;12.20;8.80;;;;;;;15.55;66.29;99875.44;6220067;23;20020;-79
2021/09/14 05:31:53;;;;;;;12.95;9.60;;;;;;;15.50;67.53;99879.28;6219732;23;20071;-80
2021/09/14 05:34:23;;;;;;;17.35;8.88;;;;;;;15.55;66.98;99870.13;6219585;23;20046;-80
2021/09/14 05:36:52;;;;;;;13.15;9.73;;;;;;;15.55;66.82;99863.00;6219415;23;20020;-79
2021/09/14 05:39:19;;;;;;;13.95;9.35;;;;;;;15.57;66.74;99862.88;6219509;23;20020;-79
2021/09/14 05:41:55;;;;;;;14.65;9.95;;;;;;;15.55;67.41;99856.84;6219794;23;20027;-79
2021/09/14 05:44:21;;;;;;;12.95;8.95;;;;;;;15.58;66.74;99851.28;6219303;23;20026;-79
2021/09/14 05:47:04;;;;;;;14.10;10.20;;;;;;;15.57;67.52;99844.31;6219901;23;20024;-80
2021/09/14 05:49:31;;;;;;;13.30;9.20;;;;;;;15.61;66.73;99841.31;6220015;23;20074;-79
2021/09/14 05:51:59;;;;;;;13.20;8.10;;;;;;;15.61;66.73;99835.16;6220076;23;20031;-80
2021/09/14 05:54:25;;;;;;;15.57;9.93;;;;;;;15.61;66.79;99828.03;6219718;23;20338;-79
2021/09/14 05:56:58;;;;;;;12.77;8.63;;;;;;;15.60;67.39;99833.47;6219839;23;20028;-79
2021/09/14 05:59:25;;;;;;;11.35;8.52;;;;;;;15.64;66.86;99840.22;6219443;23;20339;-79
2021/09/14 06:02:01;;;;;;;14.88;9.07;;;;;;;15.61;67.38;99837.78;6219746;23;20465;-79
2021/09/14 06:04:31;;;;;;;13.63;9.43;;;;;;;15.65;67.08;99841.91;6219595;23;20066;-79
2021/09/14 06:06:57;;;;;;;13.70;8.77;;;;;;;15.67;66.92;99840.00;6219796;23;20103;-79
2021/09/14 06:09:28;;;;;;;11.52;8.32;;;;;;;15.67;67.30;99833.84;6220016;23;20024;-79
2021/09/14 06:11:55;;;;;;;11.55;8.00;;;;;;;15.71;66.94;99838.78;6219697;23;20020;-79
2021/09/14 06:14:29;;;;;;;10.63;8.20;;;;;;;15.69;67.48;99832.75;6219642;23;20026;-79
2021/09/14 06:16:55;;;;;;;12.57;8.20;;;;;;;15.72;66.95;99829.88;6219744;23;20096;-79
2021/09/14 06:19:39;;;;;;;12.95;8.88;;;;;;;15.71;67.67;99833.50;6220200;23;20016;-79
2021/09/14 06:22:06;;;;;;;11.57;8.18;;;;;;;15.76;67.12;99836.63;6221644;23;20034;-79
2021/09/14 06:24:36;;;;;;;11.90;8.70;;;;;;;15.77;67.55;99840.09;6221007;23;20028;-79
2021/09/14 06:27:03;;;;;;;11.45;7.90;;;;;;;15.81;67.15;99835.41;6221310;23;20034;-79
2021/09/14 06:29:32;;;;;;;15.45;8.80;;;;;;;15.82;67.40;99831.81;6221563;23;20026;-79
2021/09/14 06:31:58;;;;;;;11.45;8.70;;;;;;;15.86;67.11;99826.09;6221467;23;20324;-79
2021/09/14 06:34:26;;;;;;;11.85;9.23;;;;;;;15.87;67.43;99832.28;6221604;23;20024;-79
2021/09/14 06:36:53;;;;;;;12.15;9.07;;;;;;;15.92;67.48;99824.78;6221049;23;20107;-79
2021/09/14 06:39:21;;;;;;;12.38;8.88;;;;;;;15.93;67.59;99837.13;6220899;23;20020;-79
2021/09/14 06:41:47;;;;;;;13.68;8.98;;;;;;;15.99;67.47;99830.50;6247368;23;20067;-79
2021/09/14 06:44:17;;;;;;;13.32;8.63;;;;;;;16.00;67.90;99835.69;6221290;23;20024;-79
2021/09/14 06:46:44;;;;;;;10.77;8.65;;;;;;;16.06;67.61;99831.72;6221495;23;20050;-79
2021/09/14 06:49:13;;;;;;;13.55;8.70;;;;;;;16.10;67.87;99837.59;6220905;23;20023;-79
2021/09/14 06:51:39;;;;;;;12.50;8.93;;;;;;;16.15;67.80;99835.47;6247768;23;20026;-79
2021/09/14 06:54:06;;;;;;;11.93;8.70;;;;;;;16.21;67.82;99842.06;6221236;23;20054;-79
2021/09/14 06:56:33;;;;;;;12.25;8.65;;;;;;;16.26;67.94;99845.22;6220843;23;20027;-80
2021/09/14 06:59:07;;;;;;;13.65;8.80;;;;;;;16.29;68.54;99837.00;6221425;23;20024;-79
2021/09/14 07:01:33;;;;;;;11.70;9.20;;;;;;;16.39;67.91;99831.78;6220752;23;20020;-79
2021/09/14 07:04:06;;;;;;;12.57;9.00;;;;;;;16.44;68.42;99845.53;6221075;23;20574;-79
2021/09/14 07:06:32;;;;;;;12.75;8.93;;;;;;;16.53;67.87;99838.66;6221272;23;20075;-79
2021/09/14 07:08:59;;;;;;;13.73;9.35;;;;;;;16.59;68.07;99835.50;6221834;23;20099;-79
2021/09/14 07:11:26;;;;;;;12.32;9.20;;;;;;;16.66;67.99;99841.16;6220784;23;20078;-79
2021/09/14 07:13:58;;;;;;;10.82;8.30;;;;;;;16.69;68.19;99848.88;6220458;23;20046;-79
2021/09/14 07:16:25;;;;;;;13.43;8.63;;;;;;;16.77;67.56;99846.44;6221097;23;20443;-80
2021/09/14 07:18:55;;;;;;;12.90;8.73;;;;;;;16.82;67.60;99847.88;6221379;23;20043;-79
2021/09/14 07:21:22;;;;;;;10.05;7.78;;;;;;;16.87;67.50;99845.69;6221023;23;20348;-79
2021/09/14 07:23:48;;;;;;;10.02;8.30;;;;;;;16.91;67.42;99847.97;6220863;23;20024;-79
2021/09/14 07:26:18;;;;;;;11.48;8.68;;;;;;;16.96;67.74;99850.22;6221060;23;20342;-79
2021/09/14 07:28:44;;;;;;;12.45;8.90;;;;;;;17.00;67.34;99849.00;6220963;23;20347;-79
2021/09/14 07:31:11;;;;;;;12.38;9.07;;;;;;;17.06;67.38;99850.34;6220544;23;20020;-79
2021/09/14 07:33:38;;;;;;;11.95;8.88;;;;;;;17.12;67.32;99859.66;6220520;23;20031;-79
2021/09/14 07:36:15;;;;;;;14.70;8.85;;;;;;;17.14;67.70;99860.34;6221893;23;20469;-79
2021/09/14 07:38:43;;;;;;;14.65;9.25;;;;;;;17.22;67.47;99855.22;6220508;23;20026;-80
2021/09/14 07:41:12;;;;;;;11.98;8.27;;;;;;;17.29;67.31;99847.59;6220763;23;20026;-79
2021/09/14 07:43:38;;;;;;;14.50;8.65;;;;;;;17.36;67.20;99858.56;6220902;23;20055;-79
2021/09/14 07:46:09;;;;;;;13.35;9.35;;;;;;;17.40;67.21;99852.84;6220300;23;20099;-80
2021/09/14 07:48:37;;;;;;;14.38;8.85;;;;;;;17.46;67.00;99856.81;6220781;23;20024;-80
2021/09/14 07:51:05;;;;;;;9.98;8.15;;;;;;;17.52;67.38;99845.63;6221141;23;20342;-79
2021/09/14 07:53:31;;;;;;;11.65;8.82;;;;;;;17.60;66.99;99850.31;6220917;23;20028;-79
2021/09/14 07:55:59;;;;;;;12.68;8.50;;;;;;;17.66;67.26;99851.59;6220163;23;20028;-80
2021/09/14 07:58:27;;;;;;;14.18;8.15;;;;;;;17.73;66.84;99850.09;6220890;23;20436;-79
2021/09/14 08:00:55;;;;;;;12.65;8.68;;;;;;;17.80;66.97;99842.44;6220384;23;20477;-79
2021/09/14 08:03:23;;;;;;;12.77;9.20;;;;;;;17.88;66.68;99839.09;6220961;23;20059;-79
2021/09/14 08:05:50;;;;;;;11.52;8.13;;;;;;;17.93;66.64;99842.19;6220038;23;20028;-79
2021/09/14 08:08:17;;;;;;;11.90;8.57;;;;;;;17.98;66.97;99834.66;6220145;23;20035;-80
2021/09/14 08:10:45;;;;;;;10.63;8.18;;;;;;;18.05;66.75;99840.31;6220091;23;20389;-79
2021/09/14 08:13:34;;;;;;;9.38;7.75;;;;;;;18.11;66.76;99831.81;6239543;23;20039;-82
2021/09/14 08:16:05;;;;;;;11.77;8.75;;;;;;;18.16;66.85;99836.75;6218987;23;20451;-81
2021/09/14 08:18:33;;;;;;;12.00;8.57;;;;;;;18.23;66.50;99848.53;6219579;23;20028;-82
2021/09/14 08:21:00;;;;;;;12.18;8.77;;;;;;;18.28;66.40;99851.63;6219642;23;20024;-82
2021/09/14 08:23:32;;;;;;;13.52;8.93;;;;;;;18.34;66.58;99859.09;6245933;23;20051;-82
2021/09/14 08:26:04;;;;;;;11.15;8.90;;;;;;;18.41;66.46;99847.88;6219268;23;20507;-82
2021/09/14 08:28:30;;;;;;;9.10;8.07;;;;;;;18.51;66.49;99848.75;6219090;23;20024;-82
2021/09/14 08:30:59;;;;;;;10.85;8.40;;;;;;;18.57;66.71;99850.84;6219799;23;20465;-82
2021/09/14 08:33:28;;;;;;;10.85;7.95;;;;;;;18.67;66.40;99856.22;6219269;23;20387;-82
2021/09/14 08:36:01;;;;;;;13.15;8.65;;;;;;;18.74;66.41;99857.34;6218485;23;20051;-82
2021/09/14 08:38:30;;;;;;;12.35;8.35;;;;;;;18.87;66.46;99862.41;6219878;23;20031;-82
2021/09/14 08:41:26;;;;;;;10.80;8.02;;;;;;;18.93;66.05;99854.81;6245968;23;20363;-82
2021/09/14 08:43:53;;;;;;;11.18;8.70;;;;;;;19.07;66.15;99862.47;6219657;23;20107;-82
2021/09/14 08:46:23;;;;;;;10.73;7.80;;;;;;;19.16;65.63;99860.75;6219938;23;20024;-82
2021/09/14 08:48:51;;;;;;;10.63;8.05;;;;;;;19.25;65.70;99859.91;6220114;23;20020;-82
2021/09/14 08:51:20;;;;;;;8.98;8.07;;;;;;;19.34;65.60;99857.38;6219899;23;20016;-82
2021/09/14 08:53:47;;;;;;;10.25;8.75;;;;;;;19.42;65.66;99859.31;6219953;23;20024;-82
2021/09/14 08:56:16;;;;;;;9.27;7.78;;;;;;;19.49;65.10;99850.63;6220069;23;20020;-82
2021/09/14 08:58:43;;;;;;;13.52;7.70;;;;;;;19.61;65.03;99861.13;6219596;23;20020;-82
2021/09/14 09:01:14;;;;;;;9.52;7.03;;;;;;;19.66;64.94;99850.84;6219979;23;20016;-82
2021/09/14 09:03:56;;;;;;;11.45;7.97;;;;;;;19.73;65.00;99851.94;6219691;23;20028;-82
2021/09/14 09:06:56;;;;;;;9.60;7.90;;;;;;;19.85;64.90;99854.47;6220248;23;20026;-82
2021/09/14 09:09:27;;;;;;;10.45;7.47;;;;;;;20.00;64.89;99844.16;6219752;23;20027;-82
2021/09/14 09:12:04;;;;;;;9.05;6.75;;;;;;;20.10;64.56;99844.97;6220299;23;20031;-82
2021/09/14 09:14:33;;;;;;;9.13;6.70;;;;;;;20.23;64.69;99841.09;6219773;23;20394;-82
2021/09/14 09:17:12;;;;;;;8.65;7.03;;;;;;;20.34;64.25;99832.03;6219950;23;20024;-82
2021/09/14 09:20:06;;;;;;;7.40;6.65;;;;;;;20.47;64.36;99826.31;6220000;23;20020;-82
2021/09/14 09:22:34;;;;;;;8.70;6.93;;;;;;;20.66;64.18;99822.69;6219494;23;20498;-82
2021/09/14 09:25:02;;;;;;;7.13;6.30;;;;;;;20.79;64.02;99825.00;6219875;23;20107;-82
2021/09/14 09:27:29;;;;;;;8.52;6.15;;;;;;;20.93;63.86;99823.66;6219601;23;20108;-82
2021/09/14 09:30:18;;;;;;;10.95;6.47;;;;;;;21.04;63.31;99820.72;6219913;23;20016;-82
2021/09/14 09:32:47;;;;;;;7.55;5.93;;;;;;;21.22;63.27;99815.34;6219736;23;20028;-82
2021/09/14 09:35:38;;;;;;;6.45;5.78;;;;;;;21.34;63.26;99815.09;6219504;23;20028;-82
2021/09/14 09:38:10;;;;;;;8.48;6.30;;;;;;;21.52;62.77;99819.56;6220056;23;20027;-82
2021/09/14 09:40:39;;;;;;;8.65;6.22;;;;;;;21.67;62.18;99822.47;6219837;23;20020;-82
2021/09/14 09:43:12;;;;;;;6.30;5.70;;;;;;;21.78;61.31;99824.94;6219737;23;20708;-82
2021/09/14 09:45:42;;;;;;;7.40;6.32;;;;;;;21.92;61.23;99818.16;6219037;23;20028;-82
2021/09/14 09:48:15;;;;;;;7.72;6.03;;;;;;;22.02;61.10;99814.50;6219481;23;20343;-82
2021/09/14 09:50:43;;;;;;;8.60;6.28;;;;;;;22.13;61.52;99817.72;6219932;23;20031;-82
2021/09/14 09:53:19;;;;;;;6.05;5.28;;;;;;;22.21;60.46;99816.91;6219322;23;20106;-82
2021/09/14 09:55:46;;;;;;;6.68;5.45;;;;;;;22.34;60.62;99812.91;6247955;23;20020;-83
2021/09/14 09:58:17;;;;;;;7.13;6.38;;;;;;;22.41;59.19;99810.41;6221888;23;20435;-83
2021/09/14 10:00:56;;;;;;;9.32;5.82;;;;;;;22.46;59.25;99805.44;6247892;23;20024;-82
2021/09/14 10:03:27;;;;;;;6.07;5.00;;;;;;;22.56;59.14;99810.66;6221889;23;20028;-83
2021/09/14 10:06:00;;;;;;;9.20;5.30;;;;;;;22.61;58.54;99811.03;6221366;23;20016;-82
2021/09/14 10:08:28;;;;;;;7.18;6.00;;;;;;;22.69;58.70;99799.47;6220397;23;20027;-80
2021/09/14 10:10:59;;;;;;;6.28;5.45;;;;;;;22.74;57.81;99802.47;6221547;23;20078;-80
2021/09/14 10:13:30;;;;;;;7.28;6.53;;;;;;;22.80;57.72;99801.78;6221333;23;20070;-80
2021/09/14 10:15:57;;;;;;;6.78;6.07;;;;;;;22.86;57.94;99803.81;6247816;23;20074;-80
2021/09/14 10:18:29;;;;;;;7.15;5.45;;;;;;;22.90;56.82;99812.38;6221791;23;20397;-80
2021/09/14 10:20:58;;;;;;;6.77;6.00;;;;;;;22.95;57.23;99809.19;6221250;23;20095;-80
2021/09/14 10:23:38;;;;;;;8.15;5.90;;;;;;;22.96;57.64;99809.03;6221101;23;20020;-80
2021/09/14 10:26:13;;;;;;;8.10;5.68;;;;;;;23.02;56.89;99805.66;6221138;23;20359;-80
2021/09/14 10:28:47;;;;;;;6.60;5.90;;;;;;;23.13;57.63;99811.69;6221713;23;20055;-80
2021/09/14 10:31:33;;;;;;;6.35;5.75;;;;;;;23.15;57.90;99815.91;6221749;23;20020;-80
2021/09/14 10:34:09;;;;;;;6.22;5.63;;;;;;;23.27;57.97;99811.03;6221696;23;20031;-80
2021/09/14 10:36:38;;;;;;;6.97;5.82;;;;;;;23.40;57.84;99812.41;6221344;23;20050;-80
2021/09/14 10:39:32;;;;;;;7.50;5.78;;;;;;;23.52;57.96;99804.81;6220928;23;20020;-80
2021/09/14 10:41:58;;;;;;;6.25;5.57;;;;;;;23.72;58.30;99799.03;6220651;23;20024;-80
2021/09/14 10:44:31;;;;;;;7.80;6.22;;;;;;;23.86;56.59;99794.78;6247551;23;20046;-80
2021/09/14 10:47:04;;;;;;;9.93;6.30;;;;;;;24.02;56.54;99793.88;6220890;23;20028;-80
2021/09/14 10:49:48;;;;;;;6.25;5.65;;;;;;;24.17;56.47;99794.00;6220983;23;20032;-81
2021/09/14 10:52:30;;;;;;;7.75;5.85;;;;;;;24.33;55.75;99796.63;6220724;23;20020;-81
2021/09/14 10:54:57;;;;;;;7.47;5.87;;;;;;;24.51;55.80;99792.00;6220817;23;20034;-81
2021/09/14 10:57:44;;;;;;;8.75;6.07;;;;;;;24.63;55.23;99790.53;6221319;23;20443;-81
2021/09/14 11:00:16;;;;;;;7.97;6.22;;;;;;;24.83;55.61;99784.69;6220900;23;20028;-81
2021/09/14 11:02:57;;;;;;;6.53;5.63;;;;;;;25.00;55.53;99784.56;6220708;23;20034;-80
2021/09/14 11:05:29;;;;;;;9.30;5.15;;;;;;;25.28;55.52;99787.50;6220580;23;20024;-81
2021/09/14 11:08:06;;;;;;;5.75;5.15;;;;;;;25.61;55.34;99786.34;6220634;23;20026;-81
2021/09/14 11:10:34;;;;;;;5.78;4.85;;;;;;;26.08;56.78;99778.00;6221039;23;20016;-81
2021/09/14 11:13:02;;;;;;;4.97;4.47;;;;;;;26.63;56.43;99775.75;6220984;23;20728;-81
2021/09/14 11:15:32;;;;;;;5.07;4.57;;;;;;;27.28;53.89;99768.59;6220861;23;20028;-81
2021/09/14 11:17:59;;;;;;;6.35;4.57;;;;;;;27.96;54.33;99776.06;6221053;23;20320;-81
2021/09/14 11:20:29;;;;;;;7.07;4.35;;;;;;;28.68;52.95;99763.97;6220625;23;20020;-82
2021/09/14 11:23:00;;;;;;;6.45;4.68;;;;;;;29.36;49.52;99766.66;6220609;23;20028;-81
2021/09/14 11:25:29;;;;;;;4.72;3.78;;;;;;;30.02;49.90;99763.97;6220429;23;20034;-81
2021/09/14 11:28:09;;;;;;;4.70;4.10;;;;;;;30.64;48.53;99762.56;6221202;23;20028;-81
2021/09/14 11:30:40;;;;;;;4.40;3.75;;;;;;;31.26;48.39;99766.44;6221170;23;20103;-81
2021/09/14 11:33:07;;;;;;;4.60;3.70;;;;;;;31.82;47.39;99770.03;6220936;23;20062;-81
2021/09/14 11:35:36;;;;;;;5.80;3.50;;;;;;;32.37;45.41;99768.25;6220854;23;20349;-81
2021/09/14 11:38:05;;;;;;;7.72;3.50;;;;;;;32.92;44.68;99756.56;6220416;23;20031;-81
2021/09/14 11:40:42;;;;;;;4.47;2.83;;;;;;;33.40;41.07;99755.47;6220315;23;20020;-80
2021/09/14 11:43:10;;;;;;;5.47;2.55;;;;;;;33.88;41.94;99743.63;6220711;23;20343;-80
2021/09/14 11:45:36;;;;;;;4.03;2.80;;;;;;;34.28;40.95;99747.41;6247021;23;20451;-82
2021/09/14 11:48:21;;;;;;;4.53;2.90;;;;;;;34.63;40.80;99740.91;6220560;23;20028;-81
2021/09/14 11:51:02;;;;;;;3.38;3.08;;;;;;;35.02;39.16;99737.38;6220765;23;20016;-81
2021/09/14 11:53:29;;;;;;;3.05;2.75;;;;;;;35.37;39.04;99738.19;6220625;23;20029;-82
2021/09/14 11:55:56;;;;;;;4.50;3.33;;;;;;;35.64;38.78;99740.16;6220001;23;20028;-79
2021/09/14 11:58:34;;;;;;;4.20;3.15;;;;;;;35.88;37.11;99739.91;6246717;23;20028;-81
2021/09/14 12:01:09;;;;;;;3.25;2.70;;;;;;;36.15;35.85;99733.63;6220116;23;20031;-81
2021/09/14 12:03:56;;;;;;;4.25;2.80;;;;;;;36.41;35.27;99731.13;6220695;23;20028;-81
2021/09/14 12:06:25;;;;;;;5.30;2.75;;;;;;;36.68;36.01;99718.44;6220601;23;20028;-81
2021/09/14 12:08:55;;;;;;;2.35;2.13;;;;;;;36.91;34.90;99711.75;6220025;23;20034;-81
2021/09/14 12:11:27;;;;;;;2.80;2.50;;;;;;;37.12;34.17;99723.69;6220699;23;20024;-80
2021/09/14 12:14:01;;;;;;;2.53;2.10;;;;;;;37.33;33.15;99715.56;6220072;23;20102;-81
2021/09/14 12:16:36;;;;;;;2.08;1.88;;;;;;;37.55;32.88;99712.63;6246781;23;20035;-80
2021/09/14 12:19:04;;;;;;;3.67;2.47;;;;;;;37.81;33.38;99720.13;6220482;23;20439;-82
2021/09/14 12:21:32;;;;;;;3.10;2.25;;;;;;;37.99;32.46;99718.81;6220002;23;20024;-80
2021/09/14 12:23:59;;;;;;;2.85;1.92;;;;;;;38.21;32.51;99714.16;6220062;23;20347;-81
2021/09/14 12:26:29;;;;;;;1.65;1.55;;;;;;;38.38;31.30;99711.16;6220832;23;20334;-81
2021/09/14 12:28:58;;;;;;;2.22;1.95;;;;;;;38.55;31.45;99719.13;6220570;23;20024;-81
2021/09/14 12:31:28;;;;;;;3.88;2.45;;;;;;;38.73;30.70;99714.19;6221149;23;20030;-82
2021/09/14 12:33:55;;;;;;;4.70;2.50;;;;;;;38.87;30.16;99714.44;6219700;23;20028;-81
2021/09/14 12:36:22;;;;;;;3.45;2.55;;;;;;;38.95;29.95;99705.59;6246213;23;20024;-80
2021/09/14 12:38:49;;;;;;;6.28;2.70;;;;;;;38.96;29.31;99710.84;6220144;23;20343;-81
2021/09/14 12:41:16;;;;;;;3.15;2.28;;;;;;;38.89;29.27;99707.53;6220193;23;20024;-82